Time;durP1;ratioP1;P1;durP2;ratioP2;P2;SDS_P1;SDS_P2;PMS_P1;PMS_P2;Temp;Humidity;BMP_temperature;BMP_pressure;BME280_temperature;BME280_humidity;BME280_pressure;Samples;Min_cycle;Max_cycle;Signal;HPM_P1;HPM_P2
2023/03/19 00:01:56;;;;;;;;;;;;;;;;;;5113983;28;2075;-37
2023/03/19 00:04:26;;;;;;;;;;;;;;;;;;5114238;28;2002;-36
2023/03/19 00:06:53;;;;;;;;;;;;;;;;;;5114108;28;1585;-37
2023/03/19 00:09:21;;;;;;;;;;;;;;;;;;5113891;28;1423;-37
2023/03/19 00:11:48;;;;;;;;;;;;;;;;;;5113967;28;1807;-37
2023/03/19 00:14:16;;;;;;;;;;;;;;;;;;5114059;28;2219;-36
2023/03/19 00:16:43;;;;;;;;;;;;;;;;;;5114255;28;1657;-38
2023/03/19 00:19:10;;;;;;;;;;;;;;;;;;5114110;28;1763;-36
2023/03/19 00:21:38;;;;;;;;;;;;;;;;;;5113601;28;1822;-37
2023/03/19 00:24:05;;;;;;;;;;;;;;;;;;5113637;28;1970;-36
2023/03/19 00:26:33;;;;;;;;;;;;;;;;;;5113894;28;2256;-37
2023/03/19 00:29:01;;;;;;;;;;;;;;;;;;5113568;28;1415;-37
2023/03/19 00:31:28;;;;;;;;;;;;;;;;;;5113672;28;2135;-36
2023/03/19 00:33:57;;;;;;;;;;;;;;;;;;5095617;28;2147;-37
2023/03/19 00:36:25;;;;;;;;;;;;;;;;;;5113497;28;1689;-36
2023/03/19 00:38:53;;;;;;;;;;;;;;;;;;5113499;28;1693;-37
2023/03/19 00:41:20;;;;;;;;;;;;;;;;;;5113527;28;1918;-37
2023/03/19 00:43:57;;;;;;;;;;;;;;;;;;5113319;28;1936;-36
2023/03/19 00:46:25;;;;;;;;;;;;;;;;;;5095122;28;2251;-37
2023/03/19 00:48:54;;;;;;;;;;;;;;;;;;5113111;28;1822;-36
2023/03/19 00:51:22;;;;;;;;;;;;;;;;;;5113503;28;1999;-37
2023/03/19 00:53:49;;;;;;;;;;;;;;;;;;5113276;28;1997;-37
2023/03/19 00:56:18;;;;;;;;;;;;;;;;;;5115589;27;1327;-37
2023/03/19 00:58:46;;;;;;;;;;;;;;;;;;5133806;27;1770;-36
2023/03/19 01:01:15;;;;;;;;;;;;;;;;;;5133575;27;1945;-38
2023/03/19 01:03:43;;;;;;;;;;;;;;;;;;5133852;27;1907;-37
2023/03/19 01:06:11;;;;;;;;;;;;;;;;;;5115080;27;2063;-36
2023/03/19 01:08:38;;;;;;;;;;;;;;;;;;5115413;27;2046;-36
2023/03/19 01:11:07;;;;;;;;;;;;;;;;;;5133337;27;1326;-38
2023/03/19 01:13:34;;;;;;;;;;;;;;;;;;5133292;27;1998;-36
2023/03/19 01:16:02;;;;;;;;;;;;;;;;;;5114774;27;1934;-38
2023/03/19 01:18:30;;;;;;;;;;;;;;;;;;5133306;27;1703;-37
2023/03/19 01:20:57;;;;;;;;;;;;;;;;;;5133320;27;1620;-37
2023/03/19 01:23:26;;;;;;;;;;;;;;;;;;5114899;27;2011;-36
2023/03/19 01:25:53;;;;;;;;;;;;;;;;;;5133028;27;2033;-36
2023/03/19 01:28:21;;;;;;;;;;;;;;;;;;5114537;27;1694;-37
2023/03/19 01:30:48;;;;;;;;;;;;;;;;;;5133202;27;1490;-40
2023/03/19 01:33:30;;;;;;;;;;;;;;;;;;5133093;27;1861;-38
2023/03/19 01:36:04;;;;;;;;;;;;;;;;;;5114401;27;1490;-38
2023/03/19 01:38:38;;;;;;;;;;;;;;;;;;5114543;27;1690;-37
2023/03/19 01:41:12;;;;;;;;;;;;;;;;;;5114351;27;1502;-37
2023/03/19 01:43:42;;;;;;;;;;;;;;;;;;5114527;27;1907;-37
2023/03/19 01:46:33;;;;;;;;;;;;;;;;;;5114427;27;1901;-36
2023/03/19 01:49:33;;;;;;;;;;;;;;;;;;5107073;28;1461;-40
2023/03/19 01:52:20;;;;;;;;;;;;;;;;;;5112296;28;1683;-37
2023/03/19 01:55:08;;;;;;;;;;;;;;;;;;5093952;28;1690;-37
2023/03/19 01:58:06;;;;;;;;;;;;;;;;;;5112106;28;1505;-37
2023/03/19 02:01:03;;;;;;;;;;;;;;;;;;5103905;28;1400;-36
2023/03/19 02:03:32;;;;;;;;;;;;;;;;;;5093673;28;2187;-38
2023/03/19 02:06:11;;;;;;;;;;;;;;;;;;5093680;28;2014;-37
2023/03/19 02:08:39;;;;;;;;;;;;;;;;;;5093789;28;1802;-37
2023/03/19 02:11:07;;;;;;;;;;;;;;;;;;5093454;28;1838;-37
2023/03/19 02:13:35;;;;;;;;;;;;;;;;;;5093467;28;1553;-36
2023/03/19 02:16:03;;;;;;;;;;;;;;;;;;5111852;28;2131;-37
2023/03/19 02:18:30;;;;;;;;;;;;;;;;;;5093453;28;1861;-38
2023/03/19 02:21:04;;;;;;;;;;;;;;;;;;5101700;27;2373;-38
2023/03/19 02:23:34;;;;;;;;;;;;;;;;;;5131931;27;1829;-36
2023/03/19 02:26:12;;;;;;;;;;;;;;;;;;5113782;27;2163;-37
2023/03/19 02:28:42;;;;;;;;;;;;;;;;;;5113742;28;2053;-36
2023/03/19 02:31:12;;;;;;;;;;;;;;;;;;5113788;28;1839;-37
2023/03/19 02:33:39;;;;;;;;;;;;;;;;;;5110327;28;2039;-36
2023/03/19 02:36:14;;;;;;;;;;;;;;;;;;5111672;28;2071;-37
2023/03/19 02:38:42;;;;;;;;;;;;;;;;;;5110283;28;2270;-37
2023/03/19 02:41:09;;;;;;;;;;;;;;;;;;5110625;28;2152;-37
2023/03/19 02:43:38;;;;;;;;;;;;;;;;;;5110039;28;2074;-37
2023/03/19 02:46:08;;;;;;;;;;;;;;;;;;5110261;28;1918;-37
2023/03/19 02:48:36;;;;;;;;;;;;;;;;;;5111510;28;2034;-37
2023/03/19 02:51:04;;;;;;;;;;;;;;;;;;5110371;28;2308;-40
2023/03/19 02:53:33;;;;;;;;;;;;;;;;;;5110193;28;2162;-41
2023/03/19 02:56:01;;;;;;;;;;;;;;;;;;5118723;28;1915;-38
2023/03/19 02:58:28;;;;;;;;;;;;;;;;;;5132348;28;1798;-41
2023/03/19 03:00:55;;;;;;;;;;;;;;;;;;5132412;28;2327;-38
2023/03/19 03:03:22;;;;;;;;;;;;;;;;;;5115644;28;2012;-37
2023/03/19 03:05:50;;;;;;;;;;;;;;;;;;5115243;28;2085;-50
2023/03/19 03:08:18;;;;;;;;;;;;;;;;;;5132838;28;1868;-36
2023/03/19 03:10:45;;;;;;;;;;;;;;;;;;5132126;28;1755;-37
2023/03/19 03:13:12;;;;;;;;;;;;;;;;;;5131775;28;1970;-37
2023/03/19 03:15:40;;;;;;;;;;;;;;;;;;5131745;28;2104;-38
2023/03/19 03:18:07;;;;;;;;;;;;;;;;;;5131979;28;2271;-40
2023/03/19 03:20:35;;;;;;;;;;;;;;;;;;5111804;28;1782;-38
2023/03/19 03:23:03;;;;;;;;;;;;;;;;;;5110932;28;1505;-37
2023/03/19 03:25:30;;;;;;;;;;;;;;;;;;5092926;28;2010;-36
2023/03/19 03:27:57;;;;;;;;;;;;;;;;;;5111074;28;1859;-37
2023/03/19 03:30:25;;;;;;;;;;;;;;;;;;5111740;28;2234;-37
2023/03/19 03:32:52;;;;;;;;;;;;;;;;;;5111365;28;1939;-37
2023/03/19 03:35:21;;;;;;;;;;;;;;;;;;5114560;28;1738;-51
2023/03/19 03:37:49;;;;;;;;;;;;;;;;;;5114657;28;2117;-37
2023/03/19 03:40:16;;;;;;;;;;;;;;;;;;5114866;28;1981;-37
2023/03/19 03:42:44;;;;;;;;;;;;;;;;;;5096198;28;1812;-37
2023/03/19 03:45:11;;;;;;;;;;;;;;;;;;5114629;28;1992;-37
2023/03/19 03:47:43;;;;;;;;;;;;;;;;;;5096376;28;2021;-37
2023/03/19 03:50:11;;;;;;;;;;;;;;;;;;5096071;28;1679;-37
2023/03/19 03:52:39;;;;;;;;;;;;;;;;;;5096051;28;1991;-37
2023/03/19 03:55:07;;;;;;;;;;;;;;;;;;5114296;28;1592;-36
2023/03/19 03:57:35;;;;;;;;;;;;;;;;;;5096022;28;1715;-37
2023/03/19 04:00:03;;;;;;;;;;;;;;;;;;5098628;27;2056;-37
2023/03/19 04:02:38;;;;;;;;;;;;;;;;;;5134573;27;1660;-37
2023/03/19 04:05:08;;;;;;;;;;;;;;;;;;5116214;27;1966;-37
2023/03/19 04:07:35;;;;;;;;;;;;;;;;;;5099635;27;1425;-37
2023/03/19 04:10:04;;;;;;;;;;;;;;;;;;5115906;27;2178;-36
2023/03/19 04:12:31;;;;;;;;;;;;;;;;;;5116125;27;1892;-37
2023/03/19 04:14:58;;;;;;;;;;;;;;;;;;5134681;27;2055;-37
2023/03/19 04:17:26;;;;;;;;;;;;;;;;;;5116412;27;1794;-36
2023/03/19 04:19:53;;;;;;;;;;;;;;;;;;5134561;27;1447;-40
2023/03/19 04:22:21;;;;;;;;;;;;;;;;;;5134574;27;1719;-37
2023/03/19 04:24:51;;;;;;;;;;;;;;;;;;5115873;27;2328;-37
2023/03/19 04:27:18;;;;;;;;;;;;;;;;;;5115009;27;2217;-37
2023/03/19 04:29:46;;;;;;;;;;;;;;;;;;5115494;27;1309;-37
2023/03/19 04:32:15;;;;;;;;;;;;;;;;;;5134282;27;1496;-39
2023/03/19 04:34:42;;;;;;;;;;;;;;;;;;5115693;27;1811;-37
2023/03/19 04:37:10;;;;;;;;;;;;;;;;;;5129604;27;9958;-39
2023/03/19 04:39:44;;;;;;;;;;;;;;;;;;5115610;27;1823;-37
2023/03/19 04:42:12;;;;;;;;;;;;;;;;;;5115449;27;1989;-37
2023/03/19 04:45:02;;;;;;;;;;;;;;;;;;5133027;27;1913;-38
2023/03/19 04:47:30;;;;;;;;;;;;;;;;;;5115850;27;2002;-37
2023/03/19 04:49:59;;;;;;;;;;;;;;;;;;5115501;27;1687;-37
2023/03/19 04:52:29;;;;;;;;;;;;;;;;;;5115830;27;2459;-37
2023/03/19 04:54:56;;;;;;;;;;;;;;;;;;5133847;27;1955;-36
2023/03/19 04:57:23;;;;;;;;;;;;;;;;;;5153171;27;2097;-37
2023/03/19 04:59:53;;;;;;;;;;;;;;;;;;5135819;27;1412;-36
2023/03/19 05:02:22;;;;;;;;;;;;;;;;;;5136041;27;1994;-36
2023/03/19 05:04:49;;;;;;;;;;;;;;;;;;5135527;27;1972;-37
2023/03/19 05:07:17;;;;;;;;;;;;;;;;;;5126136;27;1985;-37
2023/03/19 05:09:45;;;;;;;;;;;;;;;;;;5114426;27;1528;-36
2023/03/19 05:12:14;;;;;;;;;;;;;;;;;;5133637;27;1973;-37
2023/03/19 05:14:45;;;;;;;;;;;;;;;;;;5114742;27;1992;-37
2023/03/19 05:17:19;;;;;;;;;;;;;;;;;;5115066;27;1598;-37
2023/03/19 05:20:00;;;;;;;;;;;;;;;;;;5114988;27;2002;-36
2023/03/19 05:22:30;;;;;;;;;;;;;;;;;;5115127;27;1249;-34
2023/03/19 05:24:58;;;;;;;;;;;;;;;;;;5114657;27;2048;-36
2023/03/19 05:27:27;;;;;;;;;;;;;;;;;;5114780;27;2167;-36
2023/03/19 05:30:04;;;;;;;;;;;;;;;;;;5114654;27;1886;-36
2023/03/19 05:32:57;;;;;;;;;;;;;;;;;;5114552;27;1846;-37
2023/03/19 05:35:33;;;;;;;;;;;;;;;;;;5114743;27;1934;-36
2023/03/19 05:38:02;;;;;;;;;;;;;;;;;;5114555;27;1929;-37
2023/03/19 05:40:30;;;;;;;;;;;;;;;;;;5114608;27;1713;-36
2023/03/19 05:43:02;;;;;;;;;;;;;;;;;;5114521;27;1883;-35
2023/03/19 05:45:30;;;;;;;;;;;;;;;;;;5114443;27;1894;-37
2023/03/19 05:48:04;;;;;;;;;;;;;;;;;;5114461;27;2050;-36
2023/03/19 05:50:37;;;;;;;;;;;;;;;;;;5114321;27;1871;-37
2023/03/19 05:53:15;;;;;;;;;;;;;;;;;;5114143;27;1907;-37
2023/03/19 05:55:54;;;;;;;;;;;;;;;;;;5120329;27;1638;-44
2023/03/19 05:58:22;;;;;;;;;;;;;;;;;;5134305;27;1740;-37
2023/03/19 06:00:50;;;;;;;;;;;;;;;;;;5134854;27;2153;-36
2023/03/19 06:03:17;;;;;;;;;;;;;;;;;;5140455;27;1904;-37
2023/03/19 06:05:48;;;;;;;;;;;;;;;;;;5113900;27;1993;-49
2023/03/19 06:08:33;;;;;;;;;;;;;;;;;;5114285;27;2021;-53
2023/03/19 06:11:19;;;;;;;;;;;;;;;;;;5138954;27;2177;-37
2023/03/19 06:13:56;;;;;;;;;;;;;;;;;;5134070;27;1700;-37
2023/03/19 06:16:24;;;;;;;;;;;;;;;;;;5117655;27;1692;-36
2023/03/19 06:18:53;;;;;;;;;;;;;;;;;;5134446;27;2193;-37
2023/03/19 06:21:22;;;;;;;;;;;;;;;;;;5134673;27;1661;-37
2023/03/19 06:23:50;;;;;;;;;;;;;;;;;;5153088;27;1789;-37
2023/03/19 06:26:23;;;;;;;;;;;;;;;;;;5134134;27;2386;-37
2023/03/19 06:28:53;;;;;;;;;;;;;;;;;;5134307;27;1762;-38
2023/03/19 06:31:22;;;;;;;;;;;;;;;;;;5153018;27;2009;-37
2023/03/19 06:33:55;;;;;;;;;;;;;;;;;;5152926;27;2109;-37
2023/03/19 06:36:28;;;;;;;;;;;;;;;;;;5134177;27;2175;-37
2023/03/19 06:38:55;;;;;;;;;;;;;;;;;;5134091;27;1881;-36
2023/03/19 06:41:26;;;;;;;;;;;;;;;;;;5152751;27;2088;-44
2023/03/19 06:44:01;;;;;;;;;;;;;;;;;;5119585;28;1609;-50
2023/03/19 06:46:28;;;;;;;;;;;;;;;;;;5131891;28;1993;-50
2023/03/19 06:48:56;;;;;;;;;;;;;;;;;;5132074;28;1929;-45
2023/03/19 06:51:26;;;;;;;;;;;;;;;;;;5113309;28;1549;-39
2023/03/19 06:53:53;;;;;;;;;;;;;;;;;;5132117;27;1847;-36
2023/03/19 06:56:21;;;;;;;;;;;;;;;;;;5142468;27;1464;-36
2023/03/19 06:58:48;;;;;;;;;;;;;;;;;;5152547;27;2112;-37
2023/03/19 07:01:18;;;;;;;;;;;;;;;;;;5152554;27;1217;-37
2023/03/19 07:03:45;;;;;;;;;;;;;;;;;;5152552;27;2031;-37
2023/03/19 07:06:12;;;;;;;;;;;;;;;;;;5152987;27;2040;-42
2023/03/19 07:08:44;;;;;;;;;;;;;;;;;;5155289;27;1628;-38
2023/03/19 07:11:13;;;;;;;;;;;;;;;;;;5156382;27;1669;-41
2023/03/19 07:13:41;;;;;;;;;;;;;;;;;;5156544;27;1886;-42
2023/03/19 07:16:08;;;;;;;;;;;;;;;;;;5156739;27;2159;-36
2023/03/19 07:18:35;;;;;;;;;;;;;;;;;;5156468;27;1740;-36
2023/03/19 07:21:03;;;;;;;;;;;;;;;;;;5156432;27;1382;-42
2023/03/19 07:23:30;;;;;;;;;;;;;;;;;;5156466;27;1468;-46
2023/03/19 07:25:58;;;;;;;;;;;;;;;;;;5156256;27;1902;-38
2023/03/19 07:28:25;;;;;;;;;;;;;;;;;;5153854;27;1825;-37
2023/03/19 07:30:52;;;;;;;;;;;;;;;;;;5117234;27;1800;-37
2023/03/19 07:33:20;;;;;;;;;;;;;;;;;;5135390;27;1826;-43
2023/03/19 07:35:48;;;;;;;;;;;;;;;;;;5135118;27;2066;-37
2023/03/19 07:38:15;;;;;;;;;;;;;;;;;;5135409;27;1480;-38
2023/03/19 07:40:42;;;;;;;;;;;;;;;;;;5135468;27;2004;-36
2023/03/19 07:43:24;;;;;;;;;;;;;;;;;;5135137;27;1697;-41
2023/03/19 07:45:52;;;;;;;;;;;;;;;;;;5134856;27;2179;-37
2023/03/19 07:48:19;;;;;;;;;;;;;;;;;;5135155;27;1664;-41
2023/03/19 07:50:49;;;;;;;;;;;;;;;;;;5134914;27;1694;-36
2023/03/19 07:53:16;;;;;;;;;;;;;;;;;;5135469;27;1677;-36
2023/03/19 07:55:43;;;;;;;;;;;;;;;;;;5140348;27;1807;-36
2023/03/19 07:58:10;;;;;;;;;;;;;;;;;;5155707;27;1458;-39
2023/03/19 08:00:38;;;;;;;;;;;;;;;;;;5155667;27;1937;-37
2023/03/19 08:03:05;;;;;;;;;;;;;;;;;;5155667;27;1792;-37
2023/03/19 08:05:32;;;;;;;;;;;;;;;;;;5155363;27;1970;-37
2023/03/19 08:08:00;;;;;;;;;;;;;;;;;;5155394;27;1577;-36
2023/03/19 08:10:27;;;;;;;;;;;;;;;;;;5155196;27;1853;-36
2023/03/19 08:12:54;;;;;;;;;;;;;;;;;;5155344;27;1869;-39
2023/03/19 08:15:21;;;;;;;;;;;;;;;;;;5155172;27;2144;-37
2023/03/19 08:17:48;;;;;;;;;;;;;;;;;;5153952;27;1908;-37
2023/03/19 08:20:15;;;;;;;;;;;;;;;;;;5122166;27;2153;-37
2023/03/19 08:22:43;;;;;;;;;;;;;;;;;;5134662;27;1851;-43
2023/03/19 08:25:10;;;;;;;;;;;;;;;;;;5134432;27;1684;-38
2023/03/19 08:27:37;;;;;;;;;;;;;;;;;;5134052;27;2059;-37
2023/03/19 08:30:06;;;;;;;;;;;;;;;;;;5134197;27;1574;-46
2023/03/19 08:32:34;;;;;;;;;;;;;;;;;;5134351;27;1652;-38
2023/03/19 08:35:02;;;;;;;;;;;;;;;;;;5134247;27;2060;-39
2023/03/19 08:37:29;;;;;;;;;;;;;;;;;;5134254;27;2146;-38
2023/03/19 08:39:56;;;;;;;;;;;;;;;;;;5133964;27;2079;-38
2023/03/19 08:42:23;;;;;;;;;;;;;;;;;;5134308;27;1962;-38
2023/03/19 08:44:51;;;;;;;;;;;;;;;;;;5134122;27;2170;-44
2023/03/19 08:47:19;;;;;;;;;;;;;;;;;;5133681;27;2146;-37
2023/03/19 08:49:46;;;;;;;;;;;;;;;;;;5134139;27;1848;-38
2023/03/19 08:52:13;;;;;;;;;;;;;;;;;;5133986;27;1852;-41
2023/03/19 08:54:41;;;;;;;;;;;;;;;;;;5133677;27;2055;-39
2023/03/19 08:57:08;;;;;;;;;;;;;;;;;;5150782;27;2025;-38
2023/03/19 08:59:35;;;;;;;;;;;;;;;;;;5154623;27;2057;-38
2023/03/19 09:02:03;;;;;;;;;;;;;;;;;;5154537;27;1494;-38
2023/03/19 09:04:35;;;;;;;;;;;;;;;;;;5154441;27;2132;-38
2023/03/19 09:07:02;;;;;;;;;;;;;;;;;;5153961;27;2038;-40
2023/03/19 09:09:30;;;;;;;;;;;;;;;;;;5153085;27;2306;-37
2023/03/19 09:11:57;;;;;;;;;;;;;;;;;;5154256;27;2091;-39
2023/03/19 09:14:24;;;;;;;;;;;;;;;;;;5153934;27;1441;-38
2023/03/19 09:16:51;;;;;;;;;;;;;;;;;;5154092;27;2039;-45
2023/03/19 09:19:18;;;;;;;;;;;;;;;;;;5154224;27;1592;-39
2023/03/19 09:21:46;;;;;;;;;;;;;;;;;;5154148;27;2226;-38
2023/03/19 09:24:13;;;;;;;;;;;;;;;;;;5153914;27;2244;-39
2023/03/19 09:26:40;;;;;;;;;;;;;;;;;;5153994;27;1985;-39
2023/03/19 09:29:07;;;;;;;;;;;;;;;;;;5153537;27;1786;-38
2023/03/19 09:31:36;;;;;;;;;;;;;;;;;;5152856;27;1727;-39
2023/03/19 09:34:03;;;;;;;;;;;;;;;;;;5153696;27;1649;-44
2023/03/19 09:36:30;;;;;;;;;;;;;;;;;;5153911;27;1907;-39
2023/03/19 09:38:57;;;;;;;;;;;;;;;;;;5153787;27;1262;-39
2023/03/19 09:41:48;;;;;;;;;;;;;;;;;;5153713;27;1924;-42
2023/03/19 09:44:21;;;;;;;;;;;;;;;;;;5153629;27;2014;-39
2023/03/19 09:46:53;;;;;;;;;;;;;;;;;;5153746;27;2103;-39
2023/03/19 09:49:27;;;;;;;;;;;;;;;;;;5153431;27;1225;-40
2023/03/19 09:51:56;;;;;;;;;;;;;;;;;;5153496;27;2067;-39
2023/03/19 09:54:36;;;;;;;;;;;;;;;;;;5153690;27;1791;-39
2023/03/19 09:57:03;;;;;;;;;;;;;;;;;;5136808;27;2166;-40
2023/03/19 09:59:30;;;;;;;;;;;;;;;;;;5132679;27;2152;-39
2023/03/19 10:02:17;;;;;;;;;;;;;;;;;;5132223;27;1736;-40
2023/03/19 10:04:51;;;;;;;;;;;;;;;;;;5132643;27;1796;-49
2023/03/19 10:07:37;;;;;;;;;;;;;;;;;;5132439;27;1894;-50
2023/03/19 10:10:07;;;;;;;;;;;;;;;;;;5132207;27;2075;-48
2023/03/19 10:12:53;;;;;;;;;;;;;;;;;;5131913;27;2292;-40
2023/03/19 10:15:26;;;;;;;;;;;;;;;;;;5132438;27;1633;-40
2023/03/19 10:18:12;;;;;;;;;;;;;;;;;;5132464;27;1788;-41
2023/03/19 10:20:46;;;;;;;;;;;;;;;;;;5132575;27;1804;-40
2023/03/19 10:23:29;;;;;;;;;;;;;;;;;;5132279;27;1904;-41
2023/03/19 10:25:58;;;;;;;;;;;;;;;;;;5132680;27;2041;-40
2023/03/19 10:28:27;;;;;;;;;;;;;;;;;;5132145;27;1824;-40
2023/03/19 10:31:00;;;;;;;;;;;;;;;;;;5132237;27;2116;-39
2023/03/19 10:33:35;;;;;;;;;;;;;;;;;;5131949;28;2032;-40
2023/03/19 10:36:04;;;;;;;;;;;;;;;;;;5132202;28;1888;-50
2023/03/19 10:38:32;;;;;;;;;;;;;;;;;;5132429;28;2228;-39
2023/03/19 10:41:03;;;;;;;;;;;;;;;;;;5132005;28;1931;-39
2023/03/19 10:43:31;;;;;;;;;;;;;;;;;;5134558;27;1633;-39
2023/03/19 10:45:58;;;;;;;;;;;;;;;;;;5136351;27;1914;-39
2023/03/19 10:48:26;;;;;;;;;;;;;;;;;;5136057;27;1896;-39
2023/03/19 10:50:56;;;;;;;;;;;;;;;;;;5134783;27;2120;-39
2023/03/19 10:53:24;;;;;;;;;;;;;;;;;;5134843;27;1743;-39
2023/03/19 10:55:59;;;;;;;;;;;;;;;;;;5134341;27;1796;-39
2023/03/19 10:58:27;;;;;;;;;;;;;;;;;;5135753;27;1736;-39
2023/03/19 11:01:01;;;;;;;;;;;;;;;;;;5136075;27;1516;-37
2023/03/19 11:03:33;;;;;;;;;;;;;;;;;;5135831;27;1992;-38
2023/03/19 11:06:17;;;;;;;;;;;;;;;;;;5136052;27;1646;-39
2023/03/19 11:08:54;;;;;;;;;;;;;;;;;;5136103;27;2128;-37
2023/03/19 11:11:25;;;;;;;;;;;;;;;;;;5135941;27;1661;-38
2023/03/19 11:13:53;;;;;;;;;;;;;;;;;;5135690;27;1779;-38
2023/03/19 11:16:20;;;;;;;;;;;;;;;;;;5145133;27;2016;-38
2023/03/19 11:18:48;;;;;;;;;;;;;;;;;;5156486;27;1787;-36
2023/03/19 11:21:24;;;;;;;;;;;;;;;;;;5156395;27;1428;-38
2023/03/19 11:23:52;;;;;;;;;;;;;;;;;;5156578;27;1941;-41
2023/03/19 11:26:20;;;;;;;;;;;;;;;;;;5156432;27;1913;-53
2023/03/19 11:28:51;;;;;;;;;;;;;;;;;;5156370;27;1672;-50
2023/03/19 11:31:21;;;;;;;;;;;;;;;;;;5156294;27;1802;-44
2023/03/19 11:34:07;;;;;;;;;;;;;;;;;;5156265;27;1453;-38
2023/03/19 11:36:46;;;;;;;;;;;;;;;;;;5156214;27;1861;-43
2023/03/19 11:39:29;;;;;;;;;;;;;;;;;;5156180;27;1661;-37
2023/03/19 11:41:56;;;;;;;;;;;;;;;;;;5156371;27;1454;-42
2023/03/19 11:44:33;;;;;;;;;;;;;;;;;;5156221;27;1875;-37
2023/03/19 11:47:14;;;;;;;;;;;;;;;;;;5156068;27;2140;-40
2023/03/19 11:50:17;;;;;;;;;;;;;;;;;;5155501;27;1462;-43
2023/03/19 11:52:55;;;;;;;;;;;;;;;;;;5155872;27;2379;-39
2023/03/19 11:55:29;;;;;;;;;;;;;;;;;;5152326;27;1644;-38
2023/03/19 11:58:17;;;;;;;;;;;;;;;;;;5134822;27;1221;-38
2023/03/19 12:00:55;;;;;;;;;;;;;;;;;;5134509;27;1741;-38
2023/03/19 12:03:35;;;;;;;;;;;;;;;;;;5134660;27;1636;-38
2023/03/19 12:06:06;;;;;;;;;;;;;;;;;;5134650;27;2026;-39
2023/03/19 12:08:48;;;;;;;;;;;;;;;;;;5134091;27;1917;-38
2023/03/19 12:11:34;;;;;;;;;;;;;;;;;;5116702;27;1971;-38
2023/03/19 12:14:05;;;;;;;;;;;;;;;;;;5134439;27;2153;-37
2023/03/19 12:16:54;;;;;;;;;;;;;;;;;;5134519;27;2095;-38
2023/03/19 12:19:21;;;;;;;;;;;;;;;;;;5133212;27;1980;-42
2023/03/19 12:22:02;;;;;;;;;;;;;;;;;;5134526;27;1679;-38
2023/03/19 12:24:41;;;;;;;;;;;;;;;;;;5134885;27;2021;-37
2023/03/19 12:27:08;;;;;;;;;;;;;;;;;;5133995;27;2133;-38
2023/03/19 12:29:44;;;;;;;;;;;;;;;;;;5134541;27;1564;-37
2023/03/19 12:32:32;;;;;;;;;;;;;;;;;;5134139;27;2037;-38
2023/03/19 12:35:03;;;;;;;;;;;;;;;;;;5134562;27;1401;-37
2023/03/19 12:37:44;;;;;;;;;;;;;;;;;;5134221;27;1976;-38
2023/03/19 12:40:20;;;;;;;;;;;;;;;;;;5134082;27;1925;-37
2023/03/19 12:42:47;;;;;;;;;;;;;;;;;;5134432;27;2048;-37
2023/03/19 12:45:18;;;;;;;;;;;;;;;;;;5134061;27;1850;-38
2023/03/19 12:47:45;;;;;;;;;;;;;;;;;;5116057;27;1917;-37
2023/03/19 12:50:14;;;;;;;;;;;;;;;;;;5134029;27;1668;-41
2023/03/19 12:52:42;;;;;;;;;;;;;;;;;;5134010;27;2021;-38
2023/03/19 12:55:35;;;;;;;;;;;;;;;;;;5133970;27;1864;-41
2023/03/19 12:58:11;;;;;;;;;;;;;;;;;;5133747;27;2094;-38
2023/03/19 13:00:50;;;;;;;;;;;;;;;;;;5133635;27;1380;-42
2023/03/19 13:03:17;;;;;;;;;;;;;;;;;;5133864;27;2080;-39
2023/03/19 13:05:47;;;;;;;;;;;;;;;;;;5133611;27;1656;-38
2023/03/19 13:08:29;;;;;;;;;;;;;;;;;;5133341;27;2118;-43
2023/03/19 13:10:57;;;;;;;;;;;;;;;;;;5133534;27;1696;-40
2023/03/19 13:13:26;;;;;;;;;;;;;;;;;;5131238;27;1987;-38
2023/03/19 13:15:56;;;;;;;;;;;;;;;;;;5131441;27;2149;-39
2023/03/19 13:18:41;;;;;;;;;;;;;;;;;;5131786;27;1959;-38
2023/03/19 13:21:13;;;;;;;;;;;;;;;;;;5131158;27;1822;-40
2023/03/19 13:23:42;;;;;;;;;;;;;;;;;;5131322;27;1937;-40
2023/03/19 13:26:11;;;;;;;;;;;;;;;;;;5131410;27;1502;-49
2023/03/19 13:28:59;;;;;;;;;;;;;;;;;;5132897;27;1988;-39
2023/03/19 13:31:26;;;;;;;;;;;;;;;;;;5132741;27;1965;-39
2023/03/19 13:34:05;;;;;;;;;;;;;;;;;;5133264;27;2302;-38
2023/03/19 13:36:38;;;;;;;;;;;;;;;;;;5132982;27;1956;-38
2023/03/19 13:39:11;;;;;;;;;;;;;;;;;;5133085;27;1671;-40
2023/03/19 13:41:38;;;;;;;;;;;;;;;;;;5133073;27;2201;-38
2023/03/19 13:44:25;;;;;;;;;;;;;;;;;;5133079;27;2052;-38
2023/03/19 13:46:53;;;;;;;;;;;;;;;;;;5132764;27;2099;-38
2023/03/19 13:49:20;;;;;;;;;;;;;;;;;;5144346;27;1993;-38
2023/03/19 13:51:47;;;;;;;;;;;;;;;;;;5153627;27;1814;-38
2023/03/19 13:54:18;;;;;;;;;;;;;;;;;;5153152;27;2068;-39
2023/03/19 13:57:16;;;;;;;;;;;;;;;;;;5139467;27;1984;-39
2023/03/19 13:59:45;;;;;;;;;;;;;;;;;;5120352;27;1880;-39
2023/03/19 14:02:21;;;;;;;;;;;;;;;;;;5132466;27;2047;-38
2023/03/19 14:04:56;;;;;;;;;;;;;;;;;;5132380;27;1970;-39
2023/03/19 14:07:25;;;;;;;;;;;;;;;;;;5132460;27;1909;-38
2023/03/19 14:09:56;;;;;;;;;;;;;;;;;;5132613;27;1595;-43
2023/03/19 14:12:29;;;;;;;;;;;;;;;;;;5132296;27;1799;-39
2023/03/19 14:15:18;;;;;;;;;;;;;;;;;;5132220;27;1745;-37
2023/03/19 14:17:53;;;;;;;;;;;;;;;;;;5131890;27;1889;-38
2023/03/19 14:20:22;;;;;;;;;;;;;;;;;;5132406;27;1802;-39
2023/03/19 14:23:09;;;;;;;;;;;;;;;;;;5132403;27;1987;-38
2023/03/19 14:25:56;;;;;;;;;;;;;;;;;;5132253;27;1839;-38
2023/03/19 14:28:45;;;;;;;;;;;;;;;;;;5132100;27;1970;-37
2023/03/19 14:31:34;;;;;;;;;;;;;;;;;;5132279;27;1850;-37
2023/03/19 14:34:03;;;;;;;;;;;;;;;;;;5095920;28;2149;-39
2023/03/19 14:36:34;;;;;;;;;;;;;;;;;;5132362;28;1693;-38
2023/03/19 14:39:08;;;;;;;;;;;;;;;;;;5132176;28;1559;-37
2023/03/19 14:41:39;;;;;;;;;;;;;;;;;;5132488;28;2125;-38
2023/03/19 14:44:25;;;;;;;;;;;;;;;;;;5132044;28;2020;-38
2023/03/19 14:47:01;;;;;;;;;;;;;;;;;;5132082;28;1780;-38
2023/03/19 14:49:44;;;;;;;;;;;;;;;;;;5131685;28;1786;-37
2023/03/19 14:52:11;;;;;;;;;;;;;;;;;;5132117;28;2160;-40
2023/03/19 14:54:41;;;;;;;;;;;;;;;;;;5132321;28;1960;-38
2023/03/19 14:57:34;;;;;;;;;;;;;;;;;;5131883;28;1717;-38
2023/03/19 15:00:05;;;;;;;;;;;;;;;;;;5125567;28;1760;-38
2023/03/19 15:02:37;;;;;;;;;;;;;;;;;;5131838;28;2174;-37
2023/03/19 15:05:07;;;;;;;;;;;;;;;;;;5113463;28;1448;-41
2023/03/19 15:07:40;;;;;;;;;;;;;;;;;;5131654;28;1980;-38
2023/03/19 15:10:13;;;;;;;;;;;;;;;;;;5132093;28;1699;-39
2023/03/19 15:12:42;;;;;;;;;;;;;;;;;;5131767;28;2127;-39
2023/03/19 15:15:15;;;;;;;;;;;;;;;;;;5132055;28;1929;-43
2023/03/19 15:17:43;;;;;;;;;;;;;;;;;;5131608;28;2092;-44
2023/03/19 15:20:21;;;;;;;;;;;;;;;;;;5131745;28;1561;-48
2023/03/19 15:22:56;;;;;;;;;;;;;;;;;;5131660;28;1669;-39
2023/03/19 15:25:23;;;;;;;;;;;;;;;;;;5131630;28;2018;-39
2023/03/19 15:28:05;;;;;;;;;;;;;;;;;;5131240;28;2018;-38
2023/03/19 15:30:33;;;;;;;;;;;;;;;;;;5139918;27;1622;-50
2023/03/19 15:33:25;;;;;;;;;;;;;;;;;;5156476;27;1849;-38
2023/03/19 15:36:23;;;;;;;;;;;;;;;;;;5156124;27;2209;-37
2023/03/19 15:38:53;;;;;;;;;;;;;;;;;;5155957;27;2152;-37
2023/03/19 15:41:22;;;;;;;;;;;;;;;;;;5155854;27;1964;-37
2023/03/19 15:43:50;;;;;;;;;;;;;;;;;;5156206;27;1828;-38
2023/03/19 15:46:20;;;;;;;;;;;;;;;;;;5155940;27;1795;-37
2023/03/19 15:48:57;;;;;;;;;;;;;;;;;;5155888;27;2007;-37
2023/03/19 15:51:25;;;;;;;;;;;;;;;;;;5137188;27;2130;-36
2023/03/19 15:53:53;;;;;;;;;;;;;;;;;;5155402;27;2089;-37
2023/03/19 15:56:20;;;;;;;;;;;;;;;;;;5145486;27;2017;-37
2023/03/19 15:58:49;;;;;;;;;;;;;;;;;;5135079;27;1827;-38
2023/03/19 16:01:20;;;;;;;;;;;;;;;;;;5134891;27;1920;-37
2023/03/19 16:03:50;;;;;;;;;;;;;;;;;;5134683;27;2252;-39
2023/03/19 16:06:28;;;;;;;;;;;;;;;;;;5134622;27;1652;-49
2023/03/19 16:09:05;;;;;;;;;;;;;;;;;;5133473;27;1992;-38
2023/03/19 16:11:34;;;;;;;;;;;;;;;;;;5132392;27;1266;-39
2023/03/19 16:14:08;;;;;;;;;;;;;;;;;;5131811;27;2172;-39
2023/03/19 16:16:37;;;;;;;;;;;;;;;;;;5133606;27;1796;-38
2023/03/19 16:19:05;;;;;;;;;;;;;;;;;;5132818;27;1476;-38
2023/03/19 16:21:35;;;;;;;;;;;;;;;;;;5134294;27;1868;-38
2023/03/19 16:24:05;;;;;;;;;;;;;;;;;;5134169;27;1433;-38
2023/03/19 16:26:33;;;;;;;;;;;;;;;;;;5133537;27;1912;-42
2023/03/19 16:29:06;;;;;;;;;;;;;;;;;;5134133;27;1970;-38
2023/03/19 16:31:40;;;;;;;;;;;;;;;;;;5132859;27;1988;-40
2023/03/19 16:34:37;;;;;;;;;;;;;;;;;;5134469;27;1972;-38
2023/03/19 16:37:25;;;;;;;;;;;;;;;;;;5113216;27;1808;-38
2023/03/19 16:39:53;;;;;;;;;;;;;;;;;;5133702;27;1648;-39
2023/03/19 16:42:29;;;;;;;;;;;;;;;;;;5132230;27;1789;-38
2023/03/19 16:45:00;;;;;;;;;;;;;;;;;;5115166;27;1814;-40
2023/03/19 16:47:28;;;;;;;;;;;;;;;;;;5132927;27;2007;-39
2023/03/19 16:49:55;;;;;;;;;;;;;;;;;;5133264;27;2130;-39
2023/03/19 16:52:23;;;;;;;;;;;;;;;;;;5133577;27;1982;-41
2023/03/19 16:54:51;;;;;;;;;;;;;;;;;;5133168;27;2161;-39
2023/03/19 16:57:18;;;;;;;;;;;;;;;;;;5121931;27;9582;-39
2023/03/19 16:59:48;;;;;;;;;;;;;;;;;;5132492;27;2034;-39
2023/03/19 17:02:16;;;;;;;;;;;;;;;;;;5115672;27;1993;-37
2023/03/19 17:04:43;;;;;;;;;;;;;;;;;;5131443;27;2186;-43
2023/03/19 17:07:11;;;;;;;;;;;;;;;;;;5131754;27;2011;-40
2023/03/19 17:09:40;;;;;;;;;;;;;;;;;;5131301;27;2008;-39
2023/03/19 17:12:12;;;;;;;;;;;;;;;;;;5131441;27;1484;-39
2023/03/19 17:14:39;;;;;;;;;;;;;;;;;;5131530;27;1881;-43
2023/03/19 17:17:15;;;;;;;;;;;;;;;;;;5131801;27;2023;-40
2023/03/19 17:19:44;;;;;;;;;;;;;;;;;;5131902;27;1699;-39
2023/03/19 17:22:13;;;;;;;;;;;;;;;;;;5133185;27;2123;-39
2023/03/19 17:24:40;;;;;;;;;;;;;;;;;;5114282;27;2474;-53
2023/03/19 17:27:08;;;;;;;;;;;;;;;;;;5133164;27;2089;-58
2023/03/19 17:29:35;;;;;;;;;;;;;;;;;;5132606;27;1979;-41
2023/03/19 17:32:03;;;;;;;;;;;;;;;;;;5133318;27;2085;-43
2023/03/19 17:34:30;;;;;;;;;;;;;;;;;;5132952;27;2010;-42